Terminal Aerodrome Forecast
Issued by NWS

Home | Current Version | Previous Version | Text Only | Print | Product List | Glossary On
Versions: 1 2 3 4 5 6 7 8 9 10 11 12 13 14 15 16
000
FTUS46 KOTX 231159 CCA
TAFPUW
TAF COR
KPUW 231159Z 2312/2412 18006KT P6SM -SHRA OVC050
     FM231500 21006KT P6SM VCSH BKN050 OVC100
     FM232000 24010G16KT P6SM SCT050 BKN100
     FM240300 23009KT P6SM BKN060 OVC090 PROB30 2403/2408 -SHRA=

USA.gov is the U.S. government's official web portal to all federal, state and local government web resources and services.